Hauptseite
METAR-TAF:

METAR-TAF

Flughäfen :

Flughafen Agen

Agen, Frankreich

Breite: 44-11N, Länge: 000-36E, Höhe: 61 m

Beobachtung

Neuester Wetterbericht von vor 41 Minuten, um 02:00 UTC
Windstille
Temperatur 2°C
Luftfeuchtigkeit 93%
Luftdruck 1024 hPa
Sichtweite: 0450 m
Nebel

METAR: LFBA 060200Z AUTO 00000KT 0550 0450 R29/0550N FG VV/// 02/01 Q1024

Zeit: 03:41 (02:41 UTC)

Prognose

Neuester Wetterbericht von vor 9 Stunden und 41 Minuten, um 17:00 UTC
Gültige Prognose vom 04 um 18 UTC bis 05 um 03 UTC
Wind 3 kt aus unterschiedlichen Richtungen
Sichtweite 10 km oder mehr
keine Wolken unter 1500 m und keine Kumulonimbus oder Gewitterwolken

TAF: LFBA 041700Z 0418/0503 VRB03KT CAVOK

Wetterbeobachtungen und Prognosen von mehr als 4000 Flughäfen (METAR und TAF Bericht).

Die verfügbaren Stationen werden durch gelbe und rote Markierungen auf der Karte dargestellt.

Führen Sie die Maus auf sie, um den Namen der Station zu sehen.

Darauf klicken, um die Beobachtung von Wetterbeobachtungen und Prognosen zu sehen.

Um die Karte zu ändern : klicken Sie auf den grünen Tasten mit einem schwarzen Kreuz Zum Vergrößern, auf den grünen Button mit einem Gedankenstrich zu verkleinern, oder auf die grünen Pfeile für benachbarte Karten.


METAR-TAF: